Time;durP1;ratioP1;P1;durP2;ratioP2;P2;SDS_P1;SDS_P2;PMS_P1;PMS_P2;Temp;Humidity;BMP_temperature;BMP_pressure;BME280_temperature;BME280_humidity;BME280_pressure;Samples;Min_cycle;Max_cycle;Signal;HPM_P1;HPM_P2
2023/05/20 00:01:33;;;;;;;8.40;3.30;;;;;;;13.59;100.00;102301.31;5280172;28;20474;-75
2023/05/20 00:04:04;;;;;;;5.45;3.00;;;;;;;13.55;100.00;102302.56;5279548;28;20031;-75
2023/05/20 00:06:35;;;;;;;5.85;2.78;;;;;;;13.54;100.00;102298.16;5280416;28;20021;-75
2023/05/20 00:09:06;;;;;;;7.88;3.10;;;;;;;13.53;100.00;102298.28;5281048;28;20024;-75
2023/05/20 00:11:38;;;;;;;6.60;3.13;;;;;;;13.46;100.00;102291.72;5282032;28;20069;-75
2023/05/20 00:14:10;;;;;;;9.10;3.20;;;;;;;13.44;100.00;102291.84;5279793;28;20032;-75
2023/05/20 00:16:42;;;;;;;7.80;2.83;;;;;;;13.40;100.00;102293.09;5279591;28;20039;-75
2023/05/20 00:19:13;;;;;;;8.40;2.85;;;;;;;13.32;100.00;102291.03;5279199;28;20160;-75
2023/05/20 00:21:44;;;;;;;9.93;4.05;;;;;;;13.30;100.00;102300.16;5279415;28;20066;-75
2023/05/20 00:24:16;;;;;;;9.70;3.35;;;;;;;13.28;100.00;102313.66;5279122;28;20028;-75
2023/05/20 00:26:47;;;;;;;9.32;3.65;;;;;;;13.26;100.00;102298.72;5283738;28;20869;-75
2023/05/20 00:29:21;;;;;;;7.43;3.15;;;;;;;13.24;100.00;102310.38;5278516;28;20426;-74
2023/05/20 00:31:53;;;;;;;7.40;3.50;;;;;;;13.18;100.00;102304.66;5279835;28;20039;-75
2023/05/20 00:34:24;;;;;;;8.13;3.50;;;;;;;13.17;100.00;102300.31;5279377;28;20494;-74
2023/05/20 00:36:56;;;;;;;10.40;3.65;;;;;;;13.02;100.00;102294.34;5279630;28;20028;-75
2023/05/20 00:39:29;;;;;;;9.93;3.35;;;;;;;12.97;100.00;102297.41;5283022;28;20077;-74
2023/05/20 00:42:02;;;;;;;7.30;3.10;;;;;;;12.98;100.00;102295.56;5280594;28;20024;-75
2023/05/20 00:44:33;;;;;;;6.35;3.40;;;;;;;12.96;100.00;102292.16;5280592;28;20477;-75
2023/05/20 00:47:04;;;;;;;10.90;3.75;;;;;;;12.91;100.00;102297.88;5285719;28;20115;-75
2023/05/20 00:49:36;;;;;;;8.95;3.58;;;;;;;12.91;100.00;102289.00;5282144;28;20150;-75
2023/05/20 00:52:07;;;;;;;5.50;3.22;;;;;;;12.85;100.00;102293.88;5277993;28;20032;-75
2023/05/20 00:54:39;;;;;;;9.35;3.50;;;;;;;12.81;100.00;102286.19;5278558;28;20020;-75
2023/05/20 00:57:12;;;;;;;8.57;3.30;;;;;;;12.76;100.00;102285.69;5283143;28;20159;-75
2023/05/20 00:59:43;;;;;;;10.38;4.20;;;;;;;12.77;100.00;102285.59;5276937;28;20078;-74
2023/05/20 01:02:15;;;;;;;7.47;3.35;;;;;;;12.73;100.00;102288.59;5278291;28;20036;-74
2023/05/20 01:04:46;;;;;;;7.32;3.30;;;;;;;12.72;100.00;102284.25;5280221;28;20386;-75
2023/05/20 01:07:18;;;;;;;9.18;4.10;;;;;;;12.67;100.00;102287.28;5278137;28;20059;-74
2023/05/20 01:09:51;;;;;;;6.72;3.15;;;;;;;12.65;100.00;102281.19;5281902;28;20033;-75
2023/05/20 01:12:28;;;;;;;7.57;3.50;;;;;;;12.63;100.00;102278.63;5278910;28;20056;-74
2023/05/20 01:15:10;;;;;;;8.98;3.40;;;;;;;12.62;100.00;102276.97;5278005;28;20040;-74
2023/05/20 01:17:51;;;;;;;9.65;3.63;;;;;;;12.55;100.00;102277.53;5278836;28;20426;-74
2023/05/20 01:20:23;;;;;;;5.82;3.88;;;;;;;12.47;100.00;102278.16;5280385;28;20103;-75
2023/05/20 01:22:55;;;;;;;8.18;4.18;;;;;;;12.44;100.00;102273.03;5277813;28;20051;-74
2023/05/20 01:25:27;;;;;;;10.30;3.95;;;;;;;12.41;100.00;102274.13;5276505;28;20442;-75
2023/05/20 01:27:59;;;;;;;10.10;3.80;;;;;;;12.48;100.00;102279.84;5282205;28;20424;-74
2023/05/20 01:30:37;;;;;;;9.75;4.13;;;;;;;12.45;100.00;102280.94;5278046;28;20046;-75
2023/05/20 01:33:11;;;;;;;8.35;3.38;;;;;;;12.37;100.00;102280.69;5277193;28;20445;-74
2023/05/20 01:35:42;;;;;;;6.60;3.53;;;;;;;12.36;100.00;102276.31;5289095;28;20358;-74
2023/05/20 01:38:16;;;;;;;7.63;3.92;;;;;;;12.33;100.00;102270.34;5281642;28;20070;-75
2023/05/20 01:40:48;;;;;;;8.27;3.60;;;;;;;12.29;100.00;102269.75;5277467;28;20106;-75
2023/05/20 01:43:21;;;;;;;12.65;4.00;;;;;;;12.32;100.00;102265.97;5282087;28;20082;-75
2023/05/20 01:45:52;;;;;;;9.75;4.15;;;;;;;12.30;100.00;102264.25;5278904;28;20021;-75
2023/05/20 01:48:23;;;;;;;11.18;4.00;;;;;;;12.24;100.00;102259.38;5278200;28;20036;-75
2023/05/20 01:50:55;;;;;;;9.85;3.90;;;;;;;12.23;100.00;102270.19;5280906;28;20414;-75
2023/05/20 01:53:26;;;;;;;9.07;3.85;;;;;;;12.22;100.00;102260.44;5278446;28;20338;-75
2023/05/20 01:55:57;;;;;;;9.70;4.13;;;;;;;12.17;100.00;102260.00;5280061;28;20354;-74
2023/05/20 01:58:29;;;;;;;13.65;7.45;;;;;;;12.15;100.00;102256.56;5278214;28;20511;-75
2023/05/20 02:01:00;;;;;;;8.02;4.32;;;;;;;12.06;100.00;102260.78;5282953;28;20030;-74
2023/05/20 02:03:32;;;;;;;7.20;4.10;;;;;;;12.07;100.00;102257.16;5278638;28;20025;-75
2023/05/20 02:06:03;;;;;;;7.85;4.05;;;;;;;12.05;100.00;102249.25;5285613;28;20032;-74
2023/05/20 02:08:34;;;;;;;8.80;4.40;;;;;;;11.98;100.00;102255.19;5278342;28;20071;-73
2023/05/20 02:11:05;;;;;;;9.63;3.95;;;;;;;12.04;100.00;102262.72;5276605;28;20067;-74
2023/05/20 02:13:38;;;;;;;10.07;3.97;;;;;;;11.98;100.00;102253.38;5278085;28;20024;-75
2023/05/20 02:16:09;;;;;;;7.80;4.47;;;;;;;12.00;100.00;102254.09;5283250;28;20040;-75
2023/05/20 02:18:41;;;;;;;5.57;4.20;;;;;;;11.86;100.00;102263.13;5278038;28;20394;-75
2023/05/20 02:21:12;;;;;;;11.13;4.18;;;;;;;11.94;100.00;102256.38;5276702;28;20253;-75
2023/05/20 02:23:44;;;;;;;9.63;4.05;;;;;;;11.86;100.00;102260.44;5279776;28;20125;-74
2023/05/20 02:26:16;;;;;;;10.32;4.72;;;;;;;11.85;100.00;102258.78;5281151;28;20054;-74
2023/05/20 02:28:49;;;;;;;8.43;4.32;;;;;;;11.82;100.00;102253.66;5277564;28;20024;-75
2023/05/20 02:31:21;;;;;;;7.85;4.32;;;;;;;11.76;100.00;102248.75;5277710;28;20100;-74
2023/05/20 02:33:52;;;;;;;9.45;4.43;;;;;;;11.76;100.00;102246.06;5279994;28;20108;-74
2023/05/20 02:36:23;;;;;;;7.65;4.10;;;;;;;11.74;100.00;102250.69;5282228;28;20119;-75
2023/05/20 02:38:55;;;;;;;9.00;4.57;;;;;;;11.71;100.00;102241.09;5279720;28;20055;-75
2023/05/20 02:41:26;;;;;;;10.70;4.13;;;;;;;11.71;100.00;102249.13;5277941;28;20013;-75
2023/05/20 02:43:58;;;;;;;7.03;4.20;;;;;;;11.69;100.00;102245.72;5284411;28;20078;-75
2023/05/20 02:46:30;;;;;;;9.77;4.30;;;;;;;11.66;100.00;102250.44;5282450;28;20024;-75
2023/05/20 02:49:01;;;;;;;9.45;4.50;;;;;;;11.58;100.00;102252.81;5289890;28;20038;-75
2023/05/20 02:51:33;;;;;;;10.82;4.95;;;;;;;11.62;100.00;102246.28;5281304;28;20481;-75
2023/05/20 02:54:04;;;;;;;13.38;4.55;;;;;;;11.59;100.00;102246.50;5282841;28;20035;-74
2023/05/20 02:56:35;;;;;;;8.82;4.70;;;;;;;11.61;100.00;102241.91;5285453;28;20032;-74
2023/05/20 02:59:07;;;;;;;7.93;5.07;;;;;;;11.49;100.00;102239.16;5282569;28;20058;-74
2023/05/20 03:01:39;;;;;;;11.10;4.75;;;;;;;11.54;100.00;102245.03;5285514;28;20020;-75
2023/05/20 03:04:10;;;;;;;9.93;4.80;;;;;;;11.50;100.00;102243.56;5281271;28;20587;-74
2023/05/20 03:06:43;;;;;;;9.50;4.63;;;;;;;11.53;100.00;102243.34;5286538;28;20021;-74
2023/05/20 03:09:14;;;;;;;10.13;4.60;;;;;;;11.47;100.00;102243.78;5279961;28;20024;-75
2023/05/20 03:11:47;;;;;;;9.65;4.38;;;;;;;11.44;100.00;102241.31;5280757;28;20481;-74
2023/05/20 03:14:18;;;;;;;7.55;4.90;;;;;;;11.45;100.00;102237.72;5281117;28;20028;-76
2023/05/20 03:16:49;;;;;;;8.23;4.45;;;;;;;11.43;100.00;102238.75;5286498;28;20029;-75
2023/05/20 03:19:21;;;;;;;7.07;4.38;;;;;;;11.39;100.00;102238.16;5282551;28;20020;-75
2023/05/20 03:21:52;;;;;;;8.85;4.63;;;;;;;11.38;100.00;102244.47;5280822;28;20029;-74
2023/05/20 03:24:23;;;;;;;11.30;4.60;;;;;;;11.39;100.00;102239.97;5283467;28;20103;-74
2023/05/20 03:26:55;;;;;;;8.23;4.30;;;;;;;11.35;100.00;102234.00;5281577;28;20052;-74
2023/05/20 03:29:26;;;;;;;10.73;4.90;;;;;;;11.27;100.00;102241.72;5284427;28;20028;-74
2023/05/20 03:31:58;;;;;;;10.25;5.72;;;;;;;11.27;100.00;102234.59;5287660;28;20027;-75
2023/05/20 03:34:29;;;;;;;8.63;4.65;;;;;;;11.19;100.00;102236.97;5281098;28;20023;-74
2023/05/20 03:37:00;;;;;;;7.47;4.70;;;;;;;11.24;100.00;102245.47;5280509;28;20024;-74
2023/05/20 03:39:31;;;;;;;12.93;5.03;;;;;;;11.18;100.00;102237.06;5280452;28;20032;-75
2023/05/20 03:42:03;;;;;;;9.70;5.05;;;;;;;11.18;100.00;102239.72;5283161;28;20027;-75
2023/05/20 03:44:34;;;;;;;11.73;5.35;;;;;;;11.13;100.00;102243.59;5283899;28;20029;-74
2023/05/20 03:47:06;;;;;;;11.38;5.40;;;;;;;11.13;100.00;102243.59;5280943;28;20041;-75
2023/05/20 03:49:39;;;;;;;9.20;4.65;;;;;;;11.15;100.00;102235.47;5283906;28;20162;-75
2023/05/20 03:52:10;;;;;;;8.80;5.28;;;;;;;11.07;100.00;102236.03;5279774;28;20444;-75
2023/05/20 03:54:41;;;;;;;17.25;5.25;;;;;;;11.08;100.00;102237.75;5282861;28;20039;-69
2023/05/20 03:57:13;;;;;;;9.63;4.68;;;;;;;11.12;100.00;102235.69;5286900;28;20024;-69
2023/05/20 03:59:44;;;;;;;7.20;4.95;;;;;;;11.13;100.00;102235.59;5282726;28;20491;-69
2023/05/20 04:02:15;;;;;;;10.90;5.22;;;;;;;11.12;100.00;102228.53;5279811;28;20029;-69
2023/05/20 04:04:47;;;;;;;9.18;4.82;;;;;;;11.13;100.00;102235.59;5282740;28;20497;-69
2023/05/20 04:07:18;;;;;;;10.75;4.95;;;;;;;11.09;100.00;102235.91;5279508;28;20032;-69
2023/05/20 04:09:49;;;;;;;7.93;4.38;;;;;;;11.11;100.00;102237.50;5279209;28;20029;-69
2023/05/20 04:12:21;;;;;;;10.00;4.63;;;;;;;11.09;100.00;102238.59;5284654;28;20032;-70
2023/05/20 04:14:54;;;;;;;10.45;5.75;;;;;;;11.10;100.00;102248.31;5280024;28;20524;-69
2023/05/20 04:17:30;;;;;;;14.20;5.45;;;;;;;11.07;100.00;102230.69;5281822;28;20051;-69
2023/05/20 04:20:01;;;;;;;12.80;5.25;;;;;;;11.11;100.00;102242.84;5279502;28;20028;-69
2023/05/20 04:22:33;;;;;;;10.40;4.90;;;;;;;11.17;100.00;102241.56;5285136;28;20081;-69
2023/05/20 04:25:05;;;;;;;8.07;4.90;;;;;;;11.13;100.00;102243.59;5279121;28;20089;-69
2023/05/20 04:27:37;;;;;;;11.00;5.63;;;;;;;11.11;100.00;102252.69;5279078;28;20024;-68
2023/05/20 04:30:09;;;;;;;9.52;5.15;;;;;;;11.21;100.00;102243.03;5279297;28;20089;-69
2023/05/20 04:32:41;;;;;;;10.50;5.07;;;;;;;11.21;100.00;102248.38;5279416;28;20474;-69
2023/05/20 04:35:12;;;;;;;9.70;5.07;;;;;;;11.27;100.00;102244.41;5279630;28;20028;-69
2023/05/20 04:37:47;;;;;;;10.25;5.28;;;;;;;11.24;100.00;102241.97;5278311;28;20489;-69
2023/05/20 04:40:19;;;;;;;11.48;6.47;;;;;;;11.27;100.00;102242.59;5279775;28;20043;-69
2023/05/20 04:42:51;;;;;;;8.82;5.35;;;;;;;11.32;100.00;102242.25;5282724;28;20374;-69
2023/05/20 04:45:22;;;;;;;10.70;4.97;;;;;;;11.34;100.00;102235.84;5280312;28;20039;-69
2023/05/20 04:47:53;;;;;;;10.15;5.78;;;;;;;11.39;100.00;102239.97;5279698;28;20032;-69
2023/05/20 04:50:25;;;;;;;10.80;5.22;;;;;;;11.37;100.00;102248.09;5280506;28;20029;-69
2023/05/20 04:52:56;;;;;;;13.25;5.47;;;;;;;11.38;100.00;102236.47;5278831;28;20142;-70
2023/05/20 04:55:27;;;;;;;8.63;5.07;;;;;;;11.43;100.00;102238.75;5278793;28;20422;-69
2023/05/20 04:57:58;;;;;;;9.38;5.38;;;;;;;11.47;100.00;102246.44;5281260;28;20424;-69
2023/05/20 05:00:30;;;;;;;9.80;5.10;;;;;;;11.57;100.00;102245.75;5283775;28;20025;-69
2023/05/20 05:03:01;;;;;;;10.38;4.88;;;;;;;11.56;100.00;102241.41;5278216;28;20056;-69
2023/05/20 05:05:36;;;;;;;8.50;4.80;;;;;;;11.60;100.00;102238.38;5278745;28;21064;-69
2023/05/20 05:08:10;;;;;;;10.68;5.30;;;;;;;11.63;100.00;102235.47;5276768;28;20520;-69
2023/05/20 05:10:41;;;;;;;8.57;5.60;;;;;;;11.65;100.00;102235.34;5278361;28;20016;-69
2023/05/20 05:13:12;;;;;;;9.80;5.30;;;;;;;11.70;100.00;102231.34;5285707;28;20405;-69
2023/05/20 05:15:44;;;;;;;10.38;5.20;;;;;;;11.77;100.00;102234.44;5278357;28;20041;-70
2023/05/20 05:18:17;;;;;;;9.90;5.15;;;;;;;11.81;100.00;102227.03;5281915;28;20028;-69
2023/05/20 05:20:48;;;;;;;11.57;5.38;;;;;;;11.83;100.00;102225.09;5280968;28;20031;-69
2023/05/20 05:23:19;;;;;;;5.60;4.75;;;;;;;11.92;100.00;102229.75;5278472;28;20401;-69
2023/05/20 05:25:51;;;;;;;6.95;5.05;;;;;;;11.97;100.00;102230.25;5279328;28;20477;-69
2023/05/20 05:28:23;;;;;;;8.25;5.00;;;;;;;12.00;100.00;102231.84;5282123;28;20032;-69
2023/05/20 05:30:55;;;;;;;8.88;4.95;;;;;;;12.06;100.00;102231.38;5278224;28;20508;-69
2023/05/20 05:33:27;;;;;;;12.30;5.82;;;;;;;12.13;100.00;102229.91;5278063;28;20028;-69
2023/05/20 05:35:59;;;;;;;11.50;4.68;;;;;;;12.14;100.00;102230.78;5278516;28;20028;-69
2023/05/20 05:38:31;;;;;;;7.82;5.22;;;;;;;12.19;100.00;102234.81;5283645;28;20032;-69
2023/05/20 05:41:02;;;;;;;11.68;5.18;;;;;;;12.25;100.00;102222.78;5278138;28;20024;-69
2023/05/20 05:43:34;;;;;;;7.43;5.00;;;;;;;12.32;100.00;102225.81;5281927;28;20170;-70
2023/05/20 05:46:05;;;;;;;7.53;5.18;;;;;;;12.38;100.00;102225.34;5280250;28;20032;-69
2023/05/20 05:48:37;;;;;;;7.20;5.38;;;;;;;12.43;100.00;102224.03;5278468;28;20036;-69
2023/05/20 05:51:08;;;;;;;11.02;5.03;;;;;;;12.51;100.00;102227.91;5282087;28;20497;-68
2023/05/20 05:53:39;;;;;;;8.25;4.97;;;;;;;12.53;100.00;102225.97;5277542;28;20024;-69
2023/05/20 05:56:10;;;;;;;9.73;5.47;;;;;;;12.59;100.00;102229.00;5283958;28;20020;-69
2023/05/20 05:58:42;;;;;;;9.35;4.93;;;;;;;12.70;100.00;102228.16;5285362;28;20040;-69
2023/05/20 06:01:13;;;;;;;10.25;5.82;;;;;;;12.74;100.00;102234.09;5278429;28;20021;-69
2023/05/20 06:03:44;;;;;;;9.57;4.68;;;;;;;12.82;100.00;102221.81;5281175;28;20028;-69
2023/05/20 06:06:16;;;;;;;7.45;5.30;;;;;;;12.96;100.00;102226.06;5278988;28;20025;-71
2023/05/20 06:08:47;;;;;;;8.02;4.70;;;;;;;13.04;100.00;102237.00;5281980;28;20031;-69
2023/05/20 06:11:19;;;;;;;10.60;5.18;;;;;;;13.12;100.00;102239.03;5280783;28;20020;-69
2023/05/20 06:13:51;;;;;;;6.97;5.00;;;;;;;13.27;100.00;102234.28;5290065;28;20030;-69
2023/05/20 06:16:22;;;;;;;8.65;4.90;;;;;;;13.38;100.00;102231.59;5288253;28;20028;-69
2023/05/20 06:18:56;;;;;;;8.70;5.07;;;;;;;13.53;100.00;102218.72;5288742;28;20478;-69
2023/05/20 06:21:27;;;;;;;7.80;4.80;;;;;;;13.71;100.00;102210.09;5282961;28;20024;-69
2023/05/20 06:23:59;;;;;;;5.18;4.25;;;;;;;13.93;100.00;102223.41;5285890;28;20249;-69
2023/05/20 06:26:30;;;;;;;19.05;12.88;;;;;;;14.15;100.00;102209.00;5287735;28;20046;-69
2023/05/20 06:29:02;;;;;;;11.48;6.72;;;;;;;14.43;100.00;102208.41;5287895;28;20040;-69
2023/05/20 06:31:33;;;;;;;10.25;4.65;;;;;;;14.65;100.00;102208.25;5281016;28;20568;-70
2023/05/20 06:34:05;;;;;;;8.07;4.00;;;;;;;14.97;100.00;102201.88;5281725;28;20020;-69
2023/05/20 06:36:36;;;;;;;7.90;4.22;;;;;;;15.22;100.00;102199.66;5281583;28;20162;-69
2023/05/20 06:39:11;;;;;;;8.07;4.38;;;;;;;15.47;100.00;102201.75;5281492;28;20024;-69
2023/05/20 06:41:43;;;;;;;7.43;4.40;;;;;;;15.81;100.00;102195.97;5281232;28;20115;-69
2023/05/20 06:44:14;;;;;;;9.73;4.13;;;;;;;16.05;100.00;102203.56;5282153;28;20134;-69
2023/05/20 06:46:45;;;;;;;9.05;4.15;;;;;;;16.29;100.00;102199.53;5286363;28;20036;-69
2023/05/20 06:49:17;;;;;;;9.23;4.15;;;;;;;16.49;100.00;102199.47;5287491;28;20097;-69
2023/05/20 06:51:48;;;;;;;6.70;4.22;;;;;;;16.73;100.00;102197.06;5282585;28;20033;-69
2023/05/20 06:54:20;;;;;;;8.00;4.30;;;;;;;17.01;100.00;102194.38;5280689;28;20029;-69
2023/05/20 06:56:52;;;;;;;6.18;4.13;;;;;;;17.20;100.00;102188.84;5287613;28;20452;-69
2023/05/20 06:59:23;;;;;;;10.32;4.00;;;;;;;17.33;100.00;102177.69;5280622;28;20078;-69
2023/05/20 07:01:54;;;;;;;6.15;3.85;;;;;;;17.54;100.00;102192.69;5281886;28;20081;-69
2023/05/20 07:04:25;;;;;;;8.60;4.05;;;;;;;17.82;100.00;102174.53;5280227;28;20035;-69
2023/05/20 07:06:57;;;;;;;9.80;3.88;;;;;;;18.08;100.00;102176.44;5282484;28;20465;-69
2023/05/20 07:09:28;;;;;;;6.50;3.30;;;;;;;18.06;100.00;102171.19;5280449;28;20024;-70
2023/05/20 07:11:59;;;;;;;6.10;3.53;;;;;;;18.07;100.00;102177.44;5281843;28;20533;-69
2023/05/20 07:14:31;;;;;;;3.55;2.85;;;;;;;18.20;100.00;102180.56;5280303;28;20031;-69
2023/05/20 07:17:04;;;;;;;5.88;3.33;;;;;;;18.38;100.00;102176.94;5280562;28;20468;-69
2023/05/20 07:19:35;;;;;;;6.60;3.38;;;;;;;18.58;100.00;102178.34;5284424;28;20017;-69
2023/05/20 07:22:07;;;;;;;4.93;2.95;;;;;;;18.85;100.00;102173.75;5288200;28;20098;-69
2023/05/20 07:24:38;;;;;;;6.88;4.25;;;;;;;19.14;100.00;102172.47;5279625;28;20056;-69
2023/05/20 07:27:09;;;;;;;10.07;3.58;;;;;;;19.15;100.00;102166.88;5286525;28;20101;-69
2023/05/20 07:29:41;;;;;;;4.90;3.42;;;;;;;19.37;100.00;102162.69;5281711;28;20033;-69
2023/05/20 07:32:12;;;;;;;7.85;3.00;;;;;;;19.52;100.00;102176.38;5280468;28;20017;-69
2023/05/20 07:34:43;;;;;;;7.15;3.65;;;;;;;19.47;100.00;102159.81;5280212;28;20414;-68
2023/05/20 07:37:15;;;;;;;7.40;3.80;;;;;;;19.86;100.00;102160.97;5280999;28;20367;-69
2023/05/20 07:39:47;;;;;;;5.50;3.15;;;;;;;20.01;100.00;102156.56;5285477;28;20029;-69
2023/05/20 07:42:18;;;;;;;4.45;2.92;;;;;;;20.10;100.00;102160.09;5280263;28;20020;-69
2023/05/20 07:44:49;;;;;;;6.35;2.78;;;;;;;20.28;100.00;102159.84;5287834;28;20261;-69
2023/05/20 07:47:20;;;;;;;6.30;3.35;;;;;;;20.42;100.00;102159.13;5286204;28;20388;-69
2023/05/20 07:49:52;;;;;;;4.97;2.78;;;;;;;20.47;100.00;102153.19;5280166;28;20025;-69
2023/05/20 07:52:23;;;;;;;8.15;3.05;;;;;;;20.55;100.00;102158.56;5280129;28;20497;-70
2023/05/20 07:54:54;;;;;;;7.03;3.17;;;;;;;20.75;100.00;102167.97;5279791;28;20031;-69
2023/05/20 07:57:26;;;;;;;7.88;3.50;;;;;;;20.95;100.00;102143.97;5291375;28;20022;-69
2023/05/20 07:59:57;;;;;;;6.10;2.72;;;;;;;21.18;100.00;102151.28;5280788;28;20592;-69
2023/05/20 08:02:28;;;;;;;5.15;2.85;;;;;;;21.15;100.00;102154.34;5282236;28;20517;-69
2023/05/20 08:04:59;;;;;;;6.32;3.13;;;;;;;21.30;100.00;102154.38;5279386;28;20017;-69
2023/05/20 08:07:31;;;;;;;4.57;3.08;;;;;;;21.56;100.00;102154.03;5279167;28;20028;-69
2023/05/20 08:10:02;;;;;;;3.35;2.67;;;;;;;21.65;100.00;102144.78;5279906;28;20111;-70
2023/05/20 08:12:34;;;;;;;7.10;3.15;;;;;;;21.84;100.00;102139.84;5284058;28;20046;-69
2023/05/20 08:15:06;;;;;;;9.32;3.50;;;;;;;21.86;100.00;102138.66;5279466;28;20428;-70
2023/05/20 08:17:37;;;;;;;10.48;3.20;;;;;;;21.72;100.00;102131.28;5279560;28;20041;-70
2023/05/20 08:20:11;;;;;;;5.68;3.05;;;;;;;21.85;100.00;102142.38;5281659;28;20016;-69
2023/05/20 08:22:42;;;;;;;5.00;2.58;;;;;;;22.03;100.00;102141.16;5279658;28;20413;-69
2023/05/20 08:25:14;;;;;;;5.47;3.00;;;;;;;22.34;100.00;102141.00;5284090;28;20075;-69
2023/05/20 08:27:46;;;;;;;7.13;3.30;;;;;;;22.52;100.00;102135.16;5285965;28;21556;-70
2023/05/20 08:30:17;;;;;;;6.88;2.95;;;;;;;23.04;100.00;102131.34;5280469;28;20454;-69
2023/05/20 08:32:48;;;;;;;7.13;3.08;;;;;;;22.97;100.00;102125.00;5280003;28;20397;-69
2023/05/20 08:35:20;;;;;;;7.03;3.00;;;;;;;23.07;100.00;102121.13;5281860;28;20080;-70
2023/05/20 08:37:54;;;;;;;4.38;2.63;;;;;;;23.20;100.00;102126.72;5281517;28;20043;-70
2023/05/20 08:40:26;;;;;;;16.75;3.28;;;;;;;23.24;99.50;102128.00;5282446;28;20095;-69
2023/05/20 08:42:58;;;;;;;5.90;2.45;;;;;;;23.34;99.01;102116.78;5281319;28;20044;-70
2023/05/20 08:45:35;;;;;;;5.45;2.58;;;;;;;23.46;97.02;102114.34;5280823;28;20028;-70
2023/05/20 08:48:07;;;;;;;6.75;2.97;;;;;;;23.49;97.12;102106.66;5279579;28;20519;-70
2023/05/20 08:50:38;;;;;;;6.38;3.55;;;;;;;23.41;97.04;102114.94;5279823;28;20089;-69
2023/05/20 08:53:10;;;;;;;5.70;2.65;;;;;;;23.35;95.81;102111.16;5283225;28;20389;-69
2023/05/20 08:55:45;;;;;;;5.65;2.90;;;;;;;23.54;95.12;102106.88;5281144;28;20035;-70
2023/05/20 08:58:18;;;;;;;6.10;2.80;;;;;;;23.47;92.75;102108.72;5282603;28;20016;-69
2023/05/20 09:00:51;;;;;;;4.35;2.83;;;;;;;23.66;92.84;102112.63;5278870;28;20016;-70
2023/05/20 09:03:24;;;;;;;6.47;2.80;;;;;;;23.83;93.85;102101.47;5278902;28;20534;-70
2023/05/20 09:06:08;;;;;;;5.35;3.00;;;;;;;24.19;94.00;102111.28;5279750;28;20074;-70
2023/05/20 09:08:41;;;;;;;4.85;2.58;;;;;;;24.22;91.67;102100.81;5281097;28;20050;-69
2023/05/20 09:11:12;;;;;;;5.32;2.90;;;;;;;23.73;87.89;102102.59;5280698;28;20025;-69
2023/05/20 09:13:44;;;;;;;3.58;2.30;;;;;;;23.27;90.07;102097.66;5280077;28;20527;-72
2023/05/20 09:16:15;;;;;;;3.53;2.53;;;;;;;23.10;91.97;102102.53;5280365;28;20425;-70
2023/05/20 09:18:47;;;;;;;6.07;2.45;;;;;;;23.35;92.18;102093.94;5283084;28;21042;-70
2023/05/20 09:21:25;;;;;;;6.68;2.47;;;;;;;23.34;90.21;102086.84;5281808;28;20021;-69
2023/05/20 09:24:00;;;;;;;6.32;2.35;;;;;;;23.55;89.78;102100.41;5278687;28;20028;-69
2023/05/20 09:26:32;;;;;;;5.03;2.60;;;;;;;23.91;88.62;102093.09;5281452;28;20289;-70
2023/05/20 09:29:03;;;;;;;4.30;2.15;;;;;;;24.29;86.44;102088.03;5278871;28;20016;-69
2023/05/20 09:31:37;;;;;;;5.22;1.80;;;;;;;24.53;85.40;102091.28;5278099;28;20112;-70
2023/05/20 09:34:08;;;;;;;5.88;2.20;;;;;;;24.42;82.24;102100.91;5281433;28;20061;-69
2023/05/20 09:36:42;;;;;;;6.88;2.15;;;;;;;24.78;83.52;102086.13;5279880;28;20705;-71
2023/05/20 09:39:16;;;;;;;5.57;2.13;;;;;;;24.98;83.48;102097.09;5278027;28;20103;-73
2023/05/20 09:41:55;;;;;;;6.45;2.15;;;;;;;25.49;84.09;102095.66;5278758;28;20482;-69
2023/05/20 09:44:28;;;;;;;3.17;2.10;;;;;;;25.62;79.20;102084.69;5281104;28;20039;-69
2023/05/20 09:47:00;;;;;;;7.68;2.40;;;;;;;25.35;78.35;102081.16;5284086;28;20024;-68
2023/05/20 09:49:32;;;;;;;6.57;2.53;;;;;;;25.50;78.12;102093.75;5279345;28;20028;-69
2023/05/20 09:52:04;;;;;;;3.88;2.45;;;;;;;25.54;77.85;102087.63;5278253;28;20078;-69
2023/05/20 09:54:36;;;;;;;4.32;2.67;;;;;;;25.54;78.00;102084.91;5277865;28;20135;-69
2023/05/20 09:57:08;;;;;;;3.75;2.28;;;;;;;25.76;78.76;102090.13;5278921;28;20509;-69
2023/05/20 09:59:40;;;;;;;6.60;2.78;;;;;;;25.87;78.04;102099.56;5277488;28;20012;-69
2023/05/20 10:02:12;;;;;;;4.13;2.40;;;;;;;26.27;73.90;102075.69;5280539;28;20032;-69
2023/05/20 10:04:48;;;;;;;5.85;1.88;;;;;;;26.69;76.20;102078.00;5280451;28;20485;-69
2023/05/20 10:07:25;;;;;;;;;;;;;;;27.61;77.90;102069.25;5284889;28;20028;-70
2023/05/20 10:10:09;;;;;;;7.55;2.40;;;;;;;27.38;74.04;102073.47;5278295;28;20354;-69
2023/05/20 10:13:00;;;;;;;4.68;2.50;;;;;;;27.95;74.10;102067.03;5278061;28;20077;-70
2023/05/20 10:15:43;;;;;;;4.93;2.03;;;;;;;27.21;67.44;102062.25;5263949;28;20037;-70
2023/05/20 10:18:52;;;;;;;4.63;2.67;;;;;;;27.24;68.77;102055.47;5277789;28;20028;-70
2023/05/20 10:21:24;;;;;;;6.22;2.50;;;;;;;26.63;67.75;102063.31;5277376;28;20036;-70
2023/05/20 10:24:08;;;;;;;5.40;2.50;;;;;;;26.32;68.38;102064.94;5278223;28;20036;-70
2023/05/20 10:26:41;;;;;;;3.75;1.90;;;;;;;25.60;69.37;102056.75;5283566;28;20035;-70
2023/05/20 10:29:21;;;;;;;2.60;2.03;;;;;;;25.54;70.38;102049.38;5276997;28;20024;-70
2023/05/20 10:31:53;;;;;;;5.32;1.90;;;;;;;25.28;71.00;102044.81;5278102;28;20271;-69
2023/05/20 10:34:24;;;;;;;4.85;2.38;;;;;;;25.94;71.66;102045.75;5277855;28;20024;-69
2023/05/20 10:36:56;;;;;;;3.50;1.92;;;;;;;26.20;69.91;102034.69;5277883;28;20043;-70
2023/05/20 10:39:28;;;;;;;3.05;1.83;;;;;;;26.58;67.96;102035.75;5276904;28;20021;-70
2023/05/20 10:42:07;;;;;;;1.98;1.65;;;;;;;27.32;68.15;102033.31;5277713;28;20115;-70
2023/05/20 10:44:43;;;;;;;3.25;2.25;;;;;;;27.47;68.15;102024.72;5279595;28;20032;-70
2023/05/20 10:47:14;;;;;;;4.10;2.17;;;;;;;27.48;63.77;102018.19;5282311;28;20028;-70
2023/05/20 10:49:46;;;;;;;3.45;1.73;;;;;;;27.15;63.80;102024.78;5278741;28;20044;-70
2023/05/20 10:52:17;;;;;;;5.82;2.22;;;;;;;27.12;62.92;102031.56;5277154;28;20034;-70
2023/05/20 10:54:52;;;;;;;2.35;1.60;;;;;;;27.59;64.75;102033.03;5277072;28;20036;-69
2023/05/20 10:57:26;;;;;;;3.45;2.00;;;;;;;27.73;63.91;102031.81;5277792;28;20438;-70
2023/05/20 10:59:59;;;;;;;4.53;1.90;;;;;;;28.18;63.22;102031.50;5279595;28;20021;-70
2023/05/20 11:02:31;;;;;;;6.38;2.35;;;;;;;27.96;61.38;102027.56;5280004;28;20174;-70
2023/05/20 11:05:04;;;;;;;3.05;1.80;;;;;;;27.96;59.37;102016.59;5278899;28;20528;-70
2023/05/20 11:07:35;;;;;;;4.90;1.85;;;;;;;27.50;60.62;102011.41;5280641;28;20054;-70
2023/05/20 11:10:08;;;;;;;2.30;1.95;;;;;;;27.72;61.13;102016.44;5281488;28;20032;-70
2023/05/20 11:12:40;;;;;;;3.88;1.90;;;;;;;27.71;59.54;102007.38;5280793;28;20060;-70
2023/05/20 11:15:12;;;;;;;4.50;2.10;;;;;;;27.38;60.19;102006.91;5284165;28;20021;-70
2023/05/20 11:17:53;;;;;;;3.80;2.30;;;;;;;27.06;61.66;102002.34;5280954;28;20028;-70
2023/05/20 11:20:25;;;;;;;4.05;1.95;;;;;;;27.16;61.80;101997.19;5287547;28;20023;-69
2023/05/20 11:22:56;;;;;;;6.20;2.13;;;;;;;26.86;62.21;102001.66;5282933;28;20294;-69
2023/05/20 11:25:28;;;;;;;3.55;2.10;;;;;;;26.97;62.88;102006.44;5280679;28;20039;-69
2023/05/20 11:27:59;;;;;;;5.18;1.83;;;;;;;27.20;64.40;102005.78;5282002;28;20055;-70
2023/05/20 11:30:30;;;;;;;3.97;1.90;;;;;;;27.24;62.95;101997.97;5288338;28;20028;-69
2023/05/20 11:33:03;;;;;;;7.22;1.95;;;;;;;26.96;63.15;101985.56;5283999;28;20108;-70
2023/05/20 11:35:34;;;;;;;9.55;2.40;;;;;;;26.74;63.37;101990.63;5280126;28;20133;-69
2023/05/20 11:38:09;;;;;;;6.97;2.03;;;;;;;26.94;62.97;101991.28;5280377;28;20028;-70
2023/05/20 11:40:45;;;;;;;2.50;1.70;;;;;;;27.11;65.51;101990.72;5280464;28;20381;-69